createdAt,value
2018-06-05T00:00:52.847Z,21.90
2018-06-05T00:01:52.845Z,18.90
2018-06-05T00:03:13.859Z,18.80
2018-06-05T00:03:52.852Z,17.40
2018-06-05T00:04:52.861Z,18.00
2018-06-05T00:05:52.862Z,18.30
2018-06-05T00:06:52.869Z,19.90
2018-06-05T00:07:52.884Z,17.90
2018-06-05T00:09:13.944Z,19.00
2018-06-05T00:09:52.878Z,18.10
2018-06-05T00:10:52.883Z,18.30
2018-06-05T00:11:52.881Z,17.50
2018-06-05T00:12:52.888Z,19.90
2018-06-05T00:13:52.895Z,18.40
2018-06-05T00:15:13.906Z,19.20
2018-06-05T00:15:52.899Z,19.20
2018-06-05T00:16:52.904Z,19.70
2018-06-05T00:17:52.920Z,16.00
2018-06-05T00:18:53.549Z,19.80
2018-06-05T00:19:52.917Z,18.90
2018-06-05T00:21:13.927Z,19.60
2018-06-05T00:21:52.919Z,16.90
2018-06-05T00:22:52.922Z,20.90
2018-06-05T00:23:52.926Z,18.40
2018-06-05T00:24:52.929Z,18.70
2018-06-05T00:25:52.937Z,19.90
2018-06-05T00:27:13.945Z,20.20
2018-06-05T00:27:52.941Z,20.70
2018-06-05T00:28:52.949Z,21.30
2018-06-05T00:29:52.950Z,20.10
2018-06-05T00:30:52.956Z,21.30
2018-06-05T00:31:52.957Z,20.70
2018-06-05T00:33:13.970Z,19.60
2018-06-05T00:33:52.962Z,20.10
2018-06-05T00:34:52.966Z,18.90
2018-06-05T00:35:52.965Z,21.30
2018-06-05T00:36:52.970Z,20.00
2018-06-05T00:37:52.975Z,19.50
2018-06-05T00:39:14.046Z,19.70
2018-06-05T00:39:52.981Z,19.20
2018-06-05T00:40:52.984Z,18.80
2018-06-05T00:41:52.990Z,22.30
2018-06-05T00:42:52.996Z,19.70
2018-06-05T00:43:53.002Z,17.00
2018-06-05T00:45:14.052Z,20.80
2018-06-05T00:45:53.016Z,19.30
2018-06-05T00:46:53.004Z,17.30
2018-06-05T00:47:53.007Z,19.40
2018-06-05T00:48:53.020Z,20.00
2018-06-05T00:49:53.927Z,18.50
2018-06-05T00:51:14.031Z,19.90
2018-06-05T00:51:53.022Z,20.00
2018-06-05T00:52:53.028Z,19.30
2018-06-05T00:53:53.030Z,22.10
2018-06-05T00:54:53.030Z,23.40
2018-06-05T00:55:53.037Z,17.80
2018-06-05T00:57:14.060Z,20.40
2018-06-05T00:57:53.050Z,21.10
2018-06-05T00:58:53.045Z,20.70
2018-06-05T00:59:53.048Z,20.50
2018-06-05T01:00:53.055Z,21.30
2018-06-05T01:01:53.057Z,23.40
2018-06-05T01:03:14.077Z,22.40
2018-06-05T01:03:53.062Z,20.40
2018-06-05T01:04:53.065Z,28.80
2018-06-05T01:05:53.077Z,23.40
2018-06-05T01:06:53.078Z,20.30
2018-06-05T01:07:53.081Z,20.70
2018-06-05T01:09:14.147Z,20.50
2018-06-05T01:09:53.081Z,20.80
2018-06-05T01:10:53.087Z,20.20
2018-06-05T01:11:53.092Z,21.90
2018-06-05T01:12:53.112Z,22.90
2018-06-05T01:13:53.096Z,25.10
2018-06-05T01:15:14.113Z,24.90
2018-06-05T01:15:53.104Z,22.70
2018-06-05T01:16:53.110Z,22.40
2018-06-05T01:17:53.113Z,22.90
2018-06-05T01:18:53.116Z,22.20
2018-06-05T01:19:53.120Z,22.40
2018-06-05T01:21:14.135Z,21.20
2018-06-05T01:21:53.125Z,25.60
2018-06-05T01:22:53.123Z,25.40
2018-06-05T01:23:53.135Z,26.80
2018-06-05T01:24:53.134Z,31.40
2018-06-05T01:25:53.136Z,31.40
2018-06-05T01:27:14.151Z,30.60
2018-06-05T01:27:53.271Z,33.50
2018-06-05T01:28:53.147Z,33.90
2018-06-05T01:29:53.154Z,32.30
2018-06-05T01:30:53.151Z,31.60
2018-06-05T01:31:53.160Z,28.10
2018-06-05T01:33:14.176Z,27.60
2018-06-05T01:33:53.162Z,25.50
2018-06-05T01:34:53.164Z,25.20
2018-06-05T01:35:53.170Z,24.10
2018-06-05T01:36:53.173Z,24.30
2018-06-05T01:37:53.187Z,24.10
2018-06-05T01:39:14.247Z,24.20
2018-06-05T01:39:53.189Z,21.20
2018-06-05T01:40:53.186Z,22.80
2018-06-05T01:41:53.193Z,26.40
2018-06-05T01:42:53.201Z,24.00
2018-06-05T01:43:53.203Z,26.80
2018-06-05T01:45:14.211Z,26.00
2018-06-05T01:45:53.203Z,22.20
2018-06-05T01:46:53.206Z,23.40
2018-06-05T01:47:53.217Z,27.20
2018-06-05T01:48:53.210Z,25.40
2018-06-05T01:49:53.218Z,23.40
2018-06-05T01:51:14.225Z,24.80
2018-06-05T01:51:53.220Z,25.50
2018-06-05T01:52:53.224Z,25.30
2018-06-05T01:53:53.245Z,22.10
2018-06-05T01:54:53.229Z,22.00
2018-06-05T01:55:53.236Z,21.40
2018-06-05T01:57:14.295Z,23.00
2018-06-05T01:57:53.304Z,22.70
2018-06-05T01:58:53.242Z,24.30
2018-06-05T01:59:53.248Z,22.30
2018-06-05T02:00:53.256Z,22.90
2018-06-05T02:01:53.251Z,21.40
2018-06-05T02:03:14.270Z,21.50
2018-06-05T02:03:53.257Z,23.20
2018-06-05T02:04:53.263Z,24.10
2018-06-05T02:05:53.265Z,22.00
2018-06-05T02:06:53.268Z,24.10
2018-06-05T02:07:53.289Z,23.40
2018-06-05T02:09:14.352Z,21.90
2018-06-05T02:09:53.282Z,22.30
2018-06-05T02:10:53.282Z,22.50
2018-06-05T02:11:53.283Z,23.70
2018-06-05T02:12:53.337Z,23.20
2018-06-05T02:13:53.301Z,23.20
2018-06-05T02:15:14.303Z,33.00
2018-06-05T02:15:53.301Z,29.90
2018-06-05T02:16:53.304Z,30.80
2018-06-05T02:17:53.312Z,38.00
2018-06-05T02:18:53.308Z,42.80
2018-06-05T02:19:53.305Z,40.60
2018-06-05T02:21:14.328Z,41.60
2018-06-05T02:21:53.316Z,35.60
2018-06-05T02:22:53.319Z,41.80
2018-06-05T02:23:53.320Z,46.70
2018-06-05T02:24:53.321Z,45.80
2018-06-05T02:25:53.328Z,45.60
2018-06-05T02:27:14.353Z,51.10
2018-06-05T02:27:53.338Z,52.80
2018-06-05T02:28:53.338Z,48.70
2018-06-05T02:29:53.341Z,48.60
2018-06-05T02:30:53.364Z,47.50
2018-06-05T02:31:53.360Z,50.40
2018-06-05T02:33:15.241Z,53.80
2018-06-05T02:33:53.353Z,51.10
2018-06-05T02:34:53.358Z,51.60
2018-06-05T02:35:53.358Z,52.00
2018-06-05T02:36:53.364Z,48.10
2018-06-05T02:37:53.368Z,50.50
2018-06-05T02:39:14.456Z,52.60
2018-06-05T02:39:53.553Z,56.70
2018-06-05T02:40:53.377Z,58.20
2018-06-05T02:41:53.377Z,56.60
2018-06-05T02:42:53.391Z,57.20
2018-06-05T02:43:53.385Z,60.60
2018-06-05T02:45:14.405Z,58.30
2018-06-05T02:45:53.395Z,56.90
2018-06-05T02:46:53.408Z,60.20
2018-06-05T02:47:53.400Z,61.50
2018-06-05T02:48:53.399Z,68.20
2018-06-05T02:49:53.400Z,58.30
2018-06-05T02:51:14.421Z,59.70
2018-06-05T02:51:53.409Z,57.30
2018-06-05T02:52:53.486Z,61.10
2018-06-05T02:53:53.414Z,56.40
2018-06-05T02:54:53.423Z,57.90
2018-06-05T02:55:53.420Z,56.30
2018-06-05T02:57:14.438Z,58.20
2018-06-05T02:57:53.436Z,56.60
2018-06-05T02:58:53.426Z,56.40
2018-06-05T02:59:53.431Z,53.80
2018-06-05T03:00:53.441Z,58.50
2018-06-05T03:01:53.435Z,61.80
2018-06-05T03:03:14.447Z,58.20
2018-06-05T03:03:53.448Z,56.20
2018-06-05T03:04:53.443Z,61.40
2018-06-05T03:05:53.457Z,64.60
2018-06-05T03:06:53.446Z,67.90
2018-06-05T03:07:53.464Z,61.40
2018-06-05T03:09:14.555Z,60.60
2018-06-05T03:09:53.460Z,61.80
2018-06-05T03:10:53.458Z,64.10
2018-06-05T03:11:53.464Z,76.80
2018-06-05T03:12:53.467Z,70.30
2018-06-05T03:13:53.463Z,85.30
2018-06-05T03:15:14.537Z,69.10
2018-06-05T03:15:53.472Z,70.40
2018-06-05T03:16:53.474Z,75.00
2018-06-05T03:17:53.478Z,78.20
2018-06-05T03:18:53.479Z,73.00
2018-06-05T03:19:53.493Z,75.30
2018-06-05T03:21:14.492Z,81.50
2018-06-05T03:21:53.484Z,78.60
2018-06-05T03:22:53.489Z,80.20
2018-06-05T03:23:53.940Z,75.90
2018-06-05T03:24:53.501Z,75.70
2018-06-05T03:25:53.496Z,76.40
2018-06-05T03:27:14.512Z,83.90
2018-06-05T03:27:53.498Z,80.00
2018-06-05T03:28:53.501Z,82.80
2018-06-05T03:29:53.504Z,83.00
2018-06-05T03:30:53.504Z,82.40
2018-06-05T03:31:53.511Z,78.70
2018-06-05T03:33:14.520Z,80.10
2018-06-05T03:33:53.518Z,76.80
2018-06-05T03:34:53.514Z,74.10
2018-06-05T03:35:53.521Z,76.10
2018-06-05T03:36:53.521Z,83.50
2018-06-05T03:37:53.524Z,85.30
2018-06-05T03:39:14.558Z,79.40
2018-06-05T03:39:53.530Z,81.50
2018-06-05T03:40:53.543Z,79.80
2018-06-05T03:41:53.532Z,67.30
2018-06-05T03:42:53.543Z,81.30
2018-06-05T03:43:53.535Z,77.30
2018-06-05T03:45:14.545Z,81.00
2018-06-05T03:45:53.540Z,83.90
2018-06-05T03:46:53.543Z,80.10
2018-06-05T03:47:53.542Z,80.30
2018-06-05T03:48:53.544Z,86.70
2018-06-05T03:49:53.549Z,86.10
2018-06-05T03:51:14.558Z,85.70
2018-06-05T03:51:53.551Z,86.30
2018-06-05T03:52:53.553Z,85.80
2018-06-05T03:53:53.559Z,79.50
2018-06-05T03:54:54.276Z,84.60
2018-06-05T03:55:53.563Z,86.00
2018-06-05T03:57:14.636Z,90.00
2018-06-05T03:57:53.576Z,93.70
2018-06-05T03:58:53.564Z,93.80
2018-06-05T03:59:53.568Z,92.10
2018-06-05T04:00:53.571Z,94.80
2018-06-05T04:01:53.572Z,88.20
2018-06-05T04:03:14.583Z,92.00
2018-06-05T04:03:53.576Z,90.30
2018-06-05T04:04:53.577Z,83.20
2018-06-05T04:05:53.583Z,86.00
2018-06-05T04:06:53.586Z,90.20
2018-06-05T04:07:53.616Z,92.30
2018-06-05T04:09:14.653Z,87.30
2018-06-05T04:09:53.587Z,92.40
2018-06-05T04:10:53.590Z,92.80
2018-06-05T04:11:53.590Z,88.00
2018-06-05T04:12:53.596Z,86.60
2018-06-05T04:13:53.594Z,88.20
2018-06-05T04:15:14.610Z,85.90
2018-06-05T04:15:53.601Z,82.10
2018-06-05T04:16:53.607Z,87.90
2018-06-05T04:17:53.616Z,83.00
2018-06-05T04:18:53.606Z,90.30
2018-06-05T04:19:53.611Z,95.20
2018-06-05T04:21:14.619Z,88.90
2018-06-05T04:21:53.616Z,89.10
2018-06-05T04:22:53.622Z,85.40
2018-06-05T04:23:53.616Z,84.70
2018-06-05T04:24:53.620Z,86.00
2018-06-05T04:25:54.600Z,85.80
2018-06-05T04:27:14.665Z,88.30
2018-06-05T04:27:53.630Z,84.70
2018-06-05T04:28:53.625Z,89.50
2018-06-05T04:29:53.632Z,85.40
2018-06-05T04:30:53.629Z,86.40
2018-06-05T04:31:53.645Z,91.40
2018-06-05T04:33:14.646Z,84.60
2018-06-05T04:33:53.640Z,90.50
2018-06-05T04:34:53.638Z,86.30
2018-06-05T04:35:53.641Z,90.00
2018-06-05T04:36:53.649Z,96.50
2018-06-05T04:37:53.646Z,94.10
2018-06-05T04:39:15.677Z,95.50
2018-06-05T04:39:53.648Z,87.80
2018-06-05T04:40:53.651Z,90.00
2018-06-05T04:41:53.658Z,87.60
2018-06-05T04:42:53.655Z,89.40
2018-06-05T04:43:53.659Z,91.70
2018-06-05T04:45:14.669Z,91.00
2018-06-05T04:45:53.664Z,89.00
2018-06-05T04:46:53.666Z,87.10
2018-06-05T04:47:53.670Z,87.60
2018-06-05T04:48:53.668Z,89.90
2018-06-05T04:49:53.687Z,87.00
2018-06-05T04:51:14.683Z,86.60
2018-06-05T04:51:53.681Z,88.20
2018-06-05T04:52:53.680Z,86.60
2018-06-05T04:53:53.682Z,91.60
2018-06-05T04:54:53.682Z,86.30
2018-06-05T04:55:53.684Z,89.80
2018-06-05T04:57:14.704Z,90.50
2018-06-05T04:57:53.689Z,89.00
2018-06-05T04:58:53.691Z,91.90
2018-06-05T04:59:53.693Z,93.00
2018-06-05T05:00:53.702Z,91.40
2018-06-05T05:01:53.701Z,91.00
2018-06-05T05:03:14.707Z,97.00
2018-06-05T05:03:53.703Z,91.60
2018-06-05T05:04:53.701Z,89.70
2018-06-05T05:05:53.706Z,90.00
2018-06-05T05:06:53.705Z,91.00
2018-06-05T05:07:53.725Z,90.00
2018-06-05T05:09:14.754Z,98.00
2018-06-05T05:09:53.711Z,95.10
2018-06-05T05:10:53.714Z,93.50
2018-06-05T05:11:53.720Z,91.10
2018-06-05T05:12:53.795Z,92.40
2018-06-05T05:13:53.721Z,89.30
2018-06-05T05:15:14.732Z,95.30
2018-06-05T05:15:53.731Z,96.80
2018-06-05T05:16:53.726Z,86.10
2018-06-05T05:17:53.727Z,88.30
2018-06-05T05:18:53.732Z,87.00
2018-06-05T05:19:53.733Z,85.60
2018-06-05T05:21:14.748Z,88.00
2018-06-05T05:21:53.739Z,87.60
2018-06-05T05:22:53.739Z,85.40
2018-06-05T05:23:53.742Z,87.50
2018-06-05T05:24:53.749Z,83.70
2018-06-05T05:25:53.752Z,82.60
2018-06-05T05:27:14.763Z,87.70
2018-06-05T05:27:53.777Z,90.50
2018-06-05T05:28:53.754Z,86.30
2018-06-05T05:29:53.757Z,86.90
2018-06-05T05:30:53.764Z,83.10
2018-06-05T05:31:53.765Z,81.50
2018-06-05T05:33:14.774Z,87.80
2018-06-05T05:33:53.765Z,83.70
2018-06-05T05:34:53.767Z,84.90
2018-06-05T05:35:53.819Z,86.30
2018-06-05T05:36:53.772Z,85.30
2018-06-05T05:37:53.779Z,83.60
2018-06-05T05:39:14.860Z,83.00
2018-06-05T05:39:53.782Z,81.00
2018-06-05T05:40:53.785Z,82.80
2018-06-05T05:41:53.795Z,87.10
2018-06-05T05:42:53.790Z,81.40
2018-06-05T05:43:53.786Z,83.60
2018-06-05T05:45:14.795Z,80.60
2018-06-05T05:45:53.793Z,79.20
2018-06-05T05:46:53.799Z,79.10
2018-06-05T05:47:53.800Z,77.90
2018-06-05T05:48:53.802Z,78.50
2018-06-05T05:49:53.801Z,83.80
2018-06-05T05:51:14.816Z,84.10
2018-06-05T05:51:53.844Z,83.10
2018-06-05T05:52:53.811Z,84.50
2018-06-05T05:53:53.812Z,81.50
2018-06-05T05:54:53.889Z,82.00
2018-06-05T05:55:53.825Z,83.20
2018-06-05T05:57:14.840Z,85.20
2018-06-05T05:57:53.823Z,81.00
2018-06-05T05:58:53.827Z,78.80
2018-06-05T05:59:53.826Z,79.30
2018-06-05T06:00:53.851Z,81.60
2018-06-05T06:01:53.832Z,77.40
2018-06-05T06:03:14.843Z,86.40
2018-06-05T06:03:53.838Z,81.40
2018-06-05T06:04:53.945Z,79.10
2018-06-05T06:05:53.840Z,82.00
2018-06-05T06:06:53.858Z,81.90
2018-06-05T06:07:53.849Z,80.30
2018-06-05T06:09:15.954Z,89.70
2018-06-05T06:09:53.850Z,75.60
2018-06-05T06:10:53.902Z,76.30
2018-06-05T06:11:53.887Z,76.70
2018-06-05T06:12:53.861Z,80.30
2018-06-05T06:13:53.861Z,78.40
2018-06-05T06:15:14.876Z,82.60
2018-06-05T06:15:53.867Z,79.40
2018-06-05T06:16:53.896Z,86.10
2018-06-05T06:17:54.003Z,81.50
2018-06-05T06:18:53.877Z,79.70
2018-06-05T06:19:53.879Z,80.90
2018-06-05T06:21:14.893Z,76.00
2018-06-05T06:21:53.883Z,79.80
2018-06-05T06:22:53.882Z,82.50
2018-06-05T06:23:53.891Z,79.40
2018-06-05T06:24:53.893Z,86.40
2018-06-05T06:25:53.903Z,88.10
2018-06-05T06:27:14.903Z,75.50
2018-06-05T06:27:53.898Z,82.20
2018-06-05T06:28:54.514Z,79.70
2018-06-05T06:29:53.906Z,80.30
2018-06-05T06:30:53.931Z,78.70
2018-06-05T06:31:53.909Z,85.00
2018-06-05T06:33:14.920Z,83.30
2018-06-05T06:33:53.914Z,74.50
2018-06-05T06:34:54.166Z,79.30
2018-06-05T06:35:53.947Z,72.30
2018-06-05T06:36:53.920Z,74.50
2018-06-05T06:37:54.250Z,73.40
2018-06-05T06:39:14.956Z,80.80
2018-06-05T06:39:53.950Z,73.40
2018-06-05T06:40:53.941Z,75.80
2018-06-05T06:41:53.932Z,89.00
2018-06-05T06:42:53.936Z,75.50
2018-06-05T06:43:54.205Z,83.10
2018-06-05T06:45:14.946Z,81.10
2018-06-05T06:45:53.939Z,85.40
2018-06-05T06:46:53.948Z,75.30
2018-06-05T06:47:53.956Z,79.90
2018-06-05T06:48:54.020Z,78.50
2018-06-05T06:49:54.284Z,80.10
2018-06-05T06:51:14.970Z,73.50
2018-06-05T06:51:53.961Z,84.20
2018-06-05T06:52:54.856Z,81.50
2018-06-05T06:53:53.962Z,76.80
2018-06-05T06:54:53.969Z,79.20
2018-06-05T06:55:53.971Z,78.90
2018-06-05T06:57:14.979Z,84.60
2018-06-05T06:57:53.970Z,78.50
2018-06-05T06:58:54.263Z,77.70
2018-06-05T06:59:54.825Z,75.50
2018-06-05T07:00:53.993Z,84.70
2018-06-05T07:01:53.980Z,79.60
2018-06-05T07:03:14.991Z,82.50
2018-06-05T07:03:53.988Z,78.20
2018-06-05T07:04:53.992Z,77.60
2018-06-05T07:05:53.990Z,84.30
2018-06-05T07:06:54.020Z,80.50
2018-06-05T07:07:54.176Z,81.40
2018-06-05T07:09:15.094Z,77.50
2018-06-05T07:09:54.085Z,80.50
2018-06-05T07:10:54.000Z,88.40
2018-06-05T07:11:54.006Z,85.40
2018-06-05T07:12:54.005Z,81.80
2018-06-05T07:13:54.017Z,92.00
2018-06-05T07:15:15.888Z,83.60
2018-06-05T07:15:54.034Z,87.50
2018-06-05T07:16:54.280Z,85.60
2018-06-05T07:17:54.068Z,86.20
2018-06-05T07:18:54.034Z,79.70
2018-06-05T07:19:54.036Z,84.60
2018-06-05T07:21:15.505Z,81.30
2018-06-05T07:21:54.033Z,87.70
2018-06-05T07:22:54.037Z,87.30
2018-06-05T07:23:54.065Z,83.80
2018-06-05T07:24:54.050Z,88.40
2018-06-05T07:25:54.047Z,81.50
2018-06-05T07:27:15.055Z,80.60
2018-06-05T07:27:54.539Z,83.50
2018-06-05T07:28:54.054Z,81.80
2018-06-05T07:29:54.067Z,83.30
2018-06-05T07:30:54.060Z,85.20
2018-06-05T07:31:54.059Z,84.70
2018-06-05T07:33:15.073Z,80.50
2018-06-05T07:33:54.068Z,82.50
2018-06-05T07:34:54.074Z,89.30
2018-06-05T07:35:54.066Z,84.10
2018-06-05T07:36:54.079Z,84.30
2018-06-05T07:37:54.083Z,87.90
2018-06-05T07:39:15.887Z,101.20
2018-06-05T07:39:54.852Z,86.50
2018-06-05T07:40:54.425Z,89.10
2018-06-05T07:41:54.087Z,85.00
2018-06-05T07:42:54.203Z,86.10
2018-06-05T07:43:54.091Z,92.70
2018-06-05T07:45:15.102Z,94.90
2018-06-05T07:45:54.105Z,90.10
2018-06-05T07:46:54.098Z,93.30
2018-06-05T07:47:54.110Z,87.50
2018-06-05T07:48:54.166Z,88.00
2018-06-05T07:49:54.153Z,93.80
2018-06-05T07:51:15.118Z,84.30
2018-06-05T07:51:54.111Z,91.80
2018-06-05T07:52:54.120Z,89.20
2018-06-05T07:53:54.117Z,89.90
2018-06-05T07:54:54.119Z,116.10
2018-06-05T07:55:54.122Z,97.00
2018-06-05T07:57:15.150Z,96.10
2018-06-05T07:57:54.161Z,93.90
2018-06-05T07:58:54.149Z,88.20
2018-06-05T07:59:54.133Z,94.60
2018-06-05T08:00:54.154Z,101.20
2018-06-05T08:01:54.144Z,92.80
2018-06-05T08:03:15.156Z,88.60
2018-06-05T08:03:54.532Z,95.20
2018-06-05T08:04:54.312Z,94.30
2018-06-05T08:05:54.155Z,96.30
2018-06-05T08:06:54.162Z,94.10
2018-06-05T08:07:54.164Z,91.30
2018-06-05T08:09:15.363Z,93.70
2018-06-05T08:09:54.167Z,85.90
2018-06-05T08:10:54.170Z,112.80
2018-06-05T08:11:54.226Z,154.40
2018-06-05T08:12:54.182Z,91.00
2018-06-05T08:13:54.176Z,103.80
2018-06-05T08:15:15.209Z,123.20
2018-06-05T08:15:54.192Z,105.80
2018-06-05T08:16:54.279Z,100.00
2018-06-05T08:17:54.213Z,113.60
2018-06-05T08:18:54.196Z,121.50
2018-06-05T08:19:54.212Z,85.90
2018-06-05T08:21:15.211Z,132.10
2018-06-05T08:21:54.205Z,98.90
2018-06-05T08:22:54.216Z,90.30
2018-06-05T08:23:54.208Z,104.20
2018-06-05T08:24:54.214Z,191.70
2018-06-05T08:25:54.218Z,102.70
2018-06-05T08:27:15.228Z,93.00
2018-06-05T08:27:54.224Z,168.50
2018-06-05T08:28:54.225Z,95.50
2018-06-05T08:29:54.225Z,98.60
2018-06-05T08:30:54.231Z,93.30
2018-06-05T08:31:54.237Z,137.80
2018-06-05T08:33:15.437Z,104.30
2018-06-05T08:33:54.261Z,98.30
2018-06-05T08:34:54.269Z,145.00
2018-06-05T08:35:54.285Z,115.20
2018-06-05T08:36:54.255Z,93.60
2018-06-05T08:37:54.286Z,88.70
2018-06-05T08:39:15.363Z,99.80
2018-06-05T08:39:54.282Z,96.10
2018-06-05T08:40:54.284Z,94.60
2018-06-05T08:41:54.349Z,103.60
2018-06-05T08:42:54.295Z,102.70
2018-06-05T08:43:54.334Z,97.20
2018-06-05T08:45:15.378Z,99.00
2018-06-05T08:45:54.300Z,98.90
2018-06-05T08:46:54.304Z,98.20
2018-06-05T08:47:54.288Z,99.10
2018-06-05T08:48:54.299Z,95.90
2018-06-05T08:49:54.301Z,95.10
2018-06-05T08:51:15.314Z,98.90
2018-06-05T08:51:54.341Z,94.70
2018-06-05T08:52:54.314Z,88.30
2018-06-05T08:53:54.318Z,94.50
2018-06-05T08:54:54.316Z,91.90
2018-06-05T08:55:54.323Z,94.40
2018-06-05T08:57:15.347Z,92.60
2018-06-05T08:57:54.333Z,97.40
2018-06-05T08:58:54.347Z,98.90
2018-06-05T08:59:54.674Z,98.80
2018-06-05T09:00:54.886Z,95.20
2018-06-05T09:01:54.351Z,95.50
2018-06-05T09:03:15.355Z,99.90
2018-06-05T09:03:54.347Z,93.90
2018-06-05T09:04:54.378Z,95.50
2018-06-05T09:05:54.367Z,92.60
2018-06-05T09:06:54.376Z,94.20
2018-06-05T09:07:54.362Z,88.50
2018-06-05T09:09:15.520Z,96.30
2018-06-05T09:09:54.390Z,105.40
2018-06-05T09:10:55.077Z,91.80
2018-06-05T09:11:54.384Z,94.60
2018-06-05T09:12:54.382Z,99.10
2018-06-05T09:13:55.385Z,94.10
2018-06-05T09:15:15.404Z,91.50
2018-06-05T09:15:54.415Z,90.20
2018-06-05T09:16:54.396Z,94.60
2018-06-05T09:17:54.427Z,90.10
2018-06-05T09:18:54.577Z,90.00
2018-06-05T09:19:54.432Z,88.00
2018-06-05T09:21:15.430Z,95.20
2018-06-05T09:21:54.422Z,92.80
2018-06-05T09:22:54.421Z,91.50
2018-06-05T09:23:55.400Z,89.70
2018-06-05T09:24:54.432Z,85.20
2018-06-05T09:25:54.664Z,85.50
2018-06-05T09:27:15.463Z,89.30
2018-06-05T09:27:55.284Z,88.20
2018-06-05T09:28:54.489Z,88.80
2018-06-05T09:29:54.448Z,86.20
2018-06-05T09:30:54.668Z,90.80
2018-06-05T09:31:54.455Z,92.90
2018-06-05T09:33:15.472Z,89.30
2018-06-05T09:33:55.054Z,85.00
2018-06-05T09:34:54.478Z,84.50
2018-06-05T09:35:54.479Z,88.10
2018-06-05T09:36:54.489Z,86.30
2018-06-05T09:37:54.622Z,89.10
2018-06-05T09:39:15.570Z,84.50
2018-06-05T09:39:54.493Z,81.00
2018-06-05T09:40:54.496Z,80.90
2018-06-05T09:41:54.684Z,82.80
2018-06-05T09:42:54.528Z,82.30
2018-06-05T09:43:54.509Z,81.60
2018-06-05T09:45:15.525Z,75.90
2018-06-05T09:45:54.536Z,87.90
2018-06-05T09:46:54.836Z,89.30
2018-06-05T09:47:54.566Z,89.20
2018-06-05T09:48:54.549Z,88.50
2018-06-05T09:49:54.573Z,86.20
2018-06-05T09:51:15.559Z,84.90
2018-06-05T09:51:54.546Z,85.10
2018-06-05T09:52:54.760Z,79.10
2018-06-05T09:53:54.550Z,80.80
2018-06-05T09:54:54.556Z,80.00
2018-06-05T09:55:54.555Z,87.40
2018-06-05T09:57:15.608Z,84.70
2018-06-05T09:57:54.603Z,81.40
2018-06-05T09:58:54.584Z,83.60
2018-06-05T09:59:55.230Z,84.40
2018-06-05T10:00:54.579Z,92.40
2018-06-05T10:01:54.581Z,94.40
2018-06-05T10:03:15.607Z,79.30
2018-06-05T10:03:55.190Z,84.60
2018-06-05T10:04:56.909Z,80.60
2018-06-05T10:05:54.603Z,83.30
2018-06-05T10:06:54.609Z,77.80
2018-06-05T10:07:54.642Z,77.00
2018-06-05T10:09:15.673Z,82.00
2018-06-05T10:09:54.613Z,120.40
2018-06-05T10:10:54.610Z,82.10
2018-06-05T10:11:54.615Z,95.50
2018-06-05T10:12:54.633Z,77.60
2018-06-05T10:13:54.640Z,73.90
2018-06-05T10:15:15.662Z,77.20
2018-06-05T10:15:54.634Z,76.00
2018-06-05T10:16:54.640Z,81.50
2018-06-05T10:17:54.703Z,73.30
2018-06-05T10:18:54.671Z,73.80
2018-06-05T10:19:54.647Z,76.50
2018-06-05T10:21:15.684Z,70.50
2018-06-05T10:21:54.657Z,67.40
2018-06-05T10:22:54.679Z,67.90
2018-06-05T10:23:54.678Z,72.60
2018-06-05T10:24:54.682Z,75.00
2018-06-05T10:25:54.671Z,71.10
2018-06-05T10:27:15.709Z,75.80
2018-06-05T10:27:54.736Z,72.40
2018-06-05T10:28:54.692Z,65.70
2018-06-05T10:29:54.706Z,76.60
2018-06-05T10:30:54.709Z,70.90
2018-06-05T10:31:54.703Z,71.30
2018-06-05T10:33:15.710Z,69.00
2018-06-05T10:33:54.739Z,70.50
2018-06-05T10:34:54.725Z,69.10
2018-06-05T10:35:54.727Z,70.10
2018-06-05T10:36:54.720Z,81.20
2018-06-05T10:37:54.756Z,71.20
2018-06-05T10:39:15.769Z,90.00
2018-06-05T10:39:54.750Z,76.20
2018-06-05T10:40:54.740Z,71.50
2018-06-05T10:41:54.758Z,94.20
2018-06-05T10:42:54.788Z,69.70
2018-06-05T10:43:54.780Z,72.40
2018-06-05T10:45:16.831Z,113.80
2018-06-05T10:45:54.764Z,75.10
2018-06-05T10:46:54.767Z,64.30
2018-06-05T10:47:54.781Z,65.30
2018-06-05T10:48:54.772Z,61.70
2018-06-05T10:49:54.798Z,63.70
2018-06-05T10:51:15.796Z,62.60
2018-06-05T10:51:54.792Z,62.70
2018-06-05T10:52:54.793Z,58.00
2018-06-05T10:53:54.799Z,57.20
2018-06-05T10:54:55.306Z,66.80
2018-06-05T10:55:54.805Z,59.80
2018-06-05T10:57:15.854Z,60.40
2018-06-05T10:57:54.813Z,55.40
2018-06-05T10:58:55.059Z,58.20
2018-06-05T10:59:54.823Z,115.80
2018-06-05T11:00:54.838Z,58.90
2018-06-05T11:01:54.845Z,93.00
2018-06-05T11:03:16.145Z,72.00
2018-06-05T11:03:54.849Z,55.80
2018-06-05T11:04:55.896Z,60.00
2018-06-05T11:05:54.884Z,61.00
2018-06-05T11:06:54.865Z,55.30
2018-06-05T11:07:54.868Z,51.50
2018-06-05T11:09:15.984Z,59.00
2018-06-05T11:09:54.873Z,50.40
2018-06-05T11:10:54.898Z,73.20
2018-06-05T11:11:54.907Z,59.10
2018-06-05T11:12:54.892Z,73.40
2018-06-05T11:13:54.893Z,78.20
2018-06-05T11:15:15.920Z,59.20
2018-06-05T11:15:54.901Z,51.40
2018-06-05T11:16:54.966Z,52.20
2018-06-05T11:17:54.992Z,74.00
2018-06-05T11:18:54.939Z,56.80
2018-06-05T11:19:54.937Z,58.30
2018-06-05T11:21:15.935Z,54.70
2018-06-05T11:21:54.960Z,59.00
2018-06-05T11:22:54.951Z,55.80
2018-06-05T11:23:54.948Z,53.10
2018-06-05T11:24:54.953Z,54.70
2018-06-05T11:25:54.972Z,55.20
2018-06-05T11:27:15.975Z,57.00
2018-06-05T11:27:54.985Z,53.80
2018-06-05T11:28:54.968Z,53.90
2018-06-05T11:29:54.974Z,62.80
2018-06-05T11:30:54.970Z,65.00
2018-06-05T11:31:54.985Z,64.90
2018-06-05T11:33:16.928Z,51.30
2018-06-05T11:33:56.319Z,53.70
2018-06-05T11:34:54.989Z,50.90
2018-06-05T11:35:54.998Z,43.90
2018-06-05T11:36:55.037Z,46.10
2018-06-05T11:37:55.004Z,43.80
2018-06-05T11:39:16.024Z,43.50
2018-06-05T11:39:55.038Z,43.20
2018-06-05T11:40:55.031Z,43.90
2018-06-05T11:41:55.061Z,43.90
2018-06-05T11:42:55.059Z,42.40
2018-06-05T11:43:55.036Z,40.60
2018-06-05T11:45:16.072Z,48.30
2018-06-05T11:45:55.051Z,50.90
2018-06-05T11:46:55.124Z,47.60
2018-06-05T11:47:55.069Z,57.80
2018-06-05T11:48:55.058Z,55.90
2018-06-05T11:49:55.093Z,55.70
2018-06-05T11:51:16.080Z,57.70
2018-06-05T11:51:55.080Z,56.50
2018-06-05T11:52:55.073Z,57.10
2018-06-05T11:53:55.094Z,66.30
2018-06-05T11:54:55.098Z,62.60
2018-06-05T11:55:55.090Z,56.80
2018-06-05T11:57:16.117Z,55.20
2018-06-05T11:57:55.104Z,50.40
2018-06-05T11:58:55.109Z,55.50
2018-06-05T11:59:55.144Z,54.10
2018-06-05T12:00:55.191Z,49.70
2018-06-05T12:01:55.505Z,49.20
2018-06-05T12:03:16.135Z,52.50
2018-06-05T12:03:55.127Z,50.10
2018-06-05T12:04:55.132Z,56.80
2018-06-05T12:05:55.271Z,51.40
2018-06-05T12:06:55.142Z,46.50
2018-06-05T12:07:55.268Z,48.00
2018-06-05T12:09:16.165Z,45.30
2018-06-05T12:09:55.160Z,51.60
2018-06-05T12:10:55.256Z,48.90
2018-06-05T12:11:55.197Z,48.20
2018-06-05T12:12:55.430Z,49.90
2018-06-05T12:13:55.180Z,49.30
2018-06-05T12:15:16.199Z,43.90
2018-06-05T12:15:55.204Z,47.80
2018-06-05T12:16:55.302Z,49.00
2018-06-05T12:17:55.207Z,46.30
2018-06-05T12:18:55.219Z,45.80
2018-06-05T12:19:55.210Z,45.20
2018-06-05T12:21:16.232Z,44.90
2018-06-05T12:21:55.236Z,45.50
2018-06-05T12:22:55.244Z,47.30
2018-06-05T12:23:55.243Z,48.70
2018-06-05T12:24:55.245Z,46.40
2018-06-05T12:25:55.255Z,46.10
2018-06-05T12:27:16.959Z,46.20
2018-06-05T12:27:56.217Z,46.40
2018-06-05T12:28:55.505Z,49.30
2018-06-05T12:29:55.292Z,50.00
2018-06-05T12:30:55.302Z,45.40
2018-06-05T12:31:55.273Z,47.10
2018-06-05T12:33:16.323Z,46.80
2018-06-05T12:33:55.351Z,47.30
2018-06-05T12:34:55.293Z,46.00
2018-06-05T12:35:55.296Z,42.80
2018-06-05T12:36:55.333Z,46.50
2018-06-05T12:37:55.947Z,41.70
2018-06-05T12:39:16.380Z,44.60
2018-06-05T12:39:55.326Z,43.90
2018-06-05T12:40:55.323Z,43.50
2018-06-05T12:41:55.329Z,44.80
2018-06-05T12:42:55.340Z,45.60
2018-06-05T12:43:55.337Z,43.10
2018-06-05T12:45:16.392Z,49.10
2018-06-05T12:45:55.346Z,47.30
2018-06-05T12:46:55.354Z,43.90
2018-06-05T12:47:55.360Z,44.00
2018-06-05T12:48:55.379Z,44.90
2018-06-05T12:49:55.384Z,40.20
2018-06-05T12:51:16.514Z,38.80
2018-06-05T12:51:55.391Z,41.70